sensor_id;sensor_type;location;lat;lon;timestamp;P1;durP1;ratioP1;P2;durP2;ratioP2
31990;SDS011;18508;49.386;8.370;2023-03-02T00:02:01;33.35;;;14.82;;
31990;SDS011;18508;49.386;8.370;2023-03-02T00:04:38;31.02;;;13.65;;
31990;SDS011;18508;49.386;8.370;2023-03-02T00:07:15;33.17;;;13.45;;
31990;SDS011;18508;49.386;8.370;2023-03-02T00:09:46;37.38;;;14.43;;
31990;SDS011;18508;49.386;8.370;2023-03-02T00:12:14;33.15;;;13.77;;
31990;SDS011;18508;49.386;8.370;2023-03-02T00:14:46;34.15;;;15.18;;
31990;SDS011;18508;49.386;8.370;2023-03-02T00:17:14;33.25;;;15.05;;
31990;SDS011;18508;49.386;8.370;2023-03-02T00:19:43;35.13;;;14.30;;
31990;SDS011;18508;49.386;8.370;2023-03-02T00:22:11;32.45;;;13.07;;
31990;SDS011;18508;49.386;8.370;2023-03-02T00:24:49;37.33;;;14.60;;
31990;SDS011;18508;49.386;8.370;2023-03-02T00:27:17;38.08;;;13.88;;
31990;SDS011;18508;49.386;8.370;2023-03-02T00:29:50;31.75;;;13.90;;
31990;SDS011;18508;49.386;8.370;2023-03-02T00:32:19;31.67;;;14.35;;
31990;SDS011;18508;49.386;8.370;2023-03-02T00:34:47;34.63;;;15.40;;
31990;SDS011;18508;49.386;8.370;2023-03-02T00:37:18;29.48;;;14.88;;
31990;SDS011;18508;49.386;8.370;2023-03-02T00:39:49;32.42;;;13.88;;
31990;SDS011;18508;49.386;8.370;2023-03-02T00:42:19;31.65;;;14.23;;
31990;SDS011;18508;49.386;8.370;2023-03-02T00:44:48;33.35;;;14.27;;
31990;SDS011;18508;49.386;8.370;2023-03-02T00:47:17;36.03;;;14.38;;
31990;SDS011;18508;49.386;8.370;2023-03-02T00:49:46;36.08;;;14.95;;
31990;SDS011;18508;49.386;8.370;2023-03-02T00:52:15;33.75;;;14.52;;
31990;SDS011;18508;49.386;8.370;2023-03-02T00:54:44;36.08;;;15.13;;
31990;SDS011;18508;49.386;8.370;2023-03-02T00:57:14;34.60;;;14.45;;
31990;SDS011;18508;49.386;8.370;2023-03-02T00:59:42;31.70;;;14.70;;
31990;SDS011;18508;49.386;8.370;2023-03-02T01:02:11;35.88;;;15.20;;
31990;SDS011;18508;49.386;8.370;2023-03-02T01:04:42;35.85;;;15.27;;
31990;SDS011;18508;49.386;8.370;2023-03-02T01:07:12;35.30;;;15.20;;
31990;SDS011;18508;49.386;8.370;2023-03-02T01:09:43;35.50;;;14.70;;
31990;SDS011;18508;49.386;8.370;2023-03-02T01:12:18;39.70;;;15.88;;
31990;SDS011;18508;49.386;8.370;2023-03-02T01:14:47;33.67;;;14.55;;
31990;SDS011;18508;49.386;8.370;2023-03-02T01:17:16;32.60;;;14.77;;
31990;SDS011;18508;49.386;8.370;2023-03-02T01:19:44;34.28;;;13.70;;
31990;SDS011;18508;49.386;8.370;2023-03-02T01:22:13;33.63;;;15.80;;
31990;SDS011;18508;49.386;8.370;2023-03-02T01:24:43;33.05;;;14.45;;
31990;SDS011;18508;49.386;8.370;2023-03-02T01:27:11;36.13;;;15.55;;
31990;SDS011;18508;49.386;8.370;2023-03-02T01:29:44;34.08;;;16.17;;
31990;SDS011;18508;49.386;8.370;2023-03-02T01:32:12;35.47;;;14.57;;
31990;SDS011;18508;49.386;8.370;2023-03-02T01:34:40;34.58;;;15.55;;
31990;SDS011;18508;49.386;8.370;2023-03-02T01:37:09;34.40;;;14.82;;
31990;SDS011;18508;49.386;8.370;2023-03-02T01:39:41;38.45;;;15.77;;
31990;SDS011;18508;49.386;8.370;2023-03-02T01:45:50;31.77;;;14.18;;
31990;SDS011;18508;49.386;8.370;2023-03-02T01:48:24;36.38;;;14.57;;
31990;SDS011;18508;49.386;8.370;2023-03-02T01:50:55;37.10;;;14.50;;
31990;SDS011;18508;49.386;8.370;2023-03-02T01:53:25;35.05;;;14.80;;
31990;SDS011;18508;49.386;8.370;2023-03-02T01:55:58;32.83;;;15.18;;
31990;SDS011;18508;49.386;8.370;2023-03-02T01:58:30;36.78;;;14.57;;
31990;SDS011;18508;49.386;8.370;2023-03-02T02:01:09;40.55;;;16.17;;
31990;SDS011;18508;49.386;8.370;2023-03-02T02:03:44;32.08;;;15.07;;
31990;SDS011;18508;49.386;8.370;2023-03-02T02:06:17;31.23;;;15.13;;
31990;SDS011;18508;49.386;8.370;2023-03-02T02:08:50;33.45;;;14.45;;
31990;SDS011;18508;49.386;8.370;2023-03-02T02:11:20;33.60;;;14.27;;
31990;SDS011;18508;49.386;8.370;2023-03-02T02:13:49;31.40;;;13.48;;
31990;SDS011;18508;49.386;8.370;2023-03-02T02:16:21;35.88;;;15.52;;
31990;SDS011;18508;49.386;8.370;2023-03-02T02:18:49;32.95;;;14.27;;
31990;SDS011;18508;49.386;8.370;2023-03-02T02:21:19;35.53;;;14.65;;
31990;SDS011;18508;49.386;8.370;2023-03-02T02:24:01;37.05;;;14.93;;
31990;SDS011;18508;49.386;8.370;2023-03-02T02:26:37;31.42;;;14.32;;
31990;SDS011;18508;49.386;8.370;2023-03-02T02:29:10;35.83;;;15.18;;
31990;SDS011;18508;49.386;8.370;2023-03-02T02:31:41;34.03;;;15.20;;
31990;SDS011;18508;49.386;8.370;2023-03-02T02:34:13;41.42;;;15.45;;
31990;SDS011;18508;49.386;8.370;2023-03-02T02:36:48;35.45;;;14.70;;
31990;SDS011;18508;49.386;8.370;2023-03-02T02:39:21;32.47;;;13.98;;
31990;SDS011;18508;49.386;8.370;2023-03-02T02:41:57;33.00;;;14.88;;
31990;SDS011;18508;49.386;8.370;2023-03-02T02:44:28;31.92;;;13.70;;
31990;SDS011;18508;49.386;8.370;2023-03-02T02:47:00;35.38;;;13.95;;
31990;SDS011;18508;49.386;8.370;2023-03-02T02:49:30;36.65;;;15.43;;
31990;SDS011;18508;49.386;8.370;2023-03-02T02:52:00;35.13;;;15.10;;
31990;SDS011;18508;49.386;8.370;2023-03-02T02:54:31;42.78;;;16.77;;
31990;SDS011;18508;49.386;8.370;2023-03-02T02:57:02;32.00;;;14.32;;
31990;SDS011;18508;49.386;8.370;2023-03-02T02:59:32;35.90;;;15.82;;
31990;SDS011;18508;49.386;8.370;2023-03-02T03:02:05;44.10;;;16.73;;
31990;SDS011;18508;49.386;8.370;2023-03-02T03:04:34;32.45;;;13.90;;
31990;SDS011;18508;49.386;8.370;2023-03-02T03:07:04;37.88;;;14.85;;
31990;SDS011;18508;49.386;8.370;2023-03-02T03:09:33;37.83;;;14.77;;
31990;SDS011;18508;49.386;8.370;2023-03-02T03:12:12;36.42;;;14.93;;
31990;SDS011;18508;49.386;8.370;2023-03-02T03:14:44;34.90;;;14.55;;
31990;SDS011;18508;49.386;8.370;2023-03-02T03:17:13;31.75;;;13.38;;
31990;SDS011;18508;49.386;8.370;2023-03-02T03:19:42;36.63;;;14.98;;
31990;SDS011;18508;49.386;8.370;2023-03-02T03:22:13;33.20;;;15.02;;
31990;SDS011;18508;49.386;8.370;2023-03-02T03:24:42;38.63;;;14.65;;
31990;SDS011;18508;49.386;8.370;2023-03-02T03:27:14;34.88;;;14.98;;
31990;SDS011;18508;49.386;8.370;2023-03-02T03:29:47;38.83;;;15.07;;
31990;SDS011;18508;49.386;8.370;2023-03-02T03:32:18;34.55;;;14.60;;
31990;SDS011;18508;49.386;8.370;2023-03-02T03:34:48;31.30;;;14.38;;
31990;SDS011;18508;49.386;8.370;2023-03-02T03:37:18;35.70;;;14.35;;
31990;SDS011;18508;49.386;8.370;2023-03-02T03:39:46;36.58;;;14.15;;
31990;SDS011;18508;49.386;8.370;2023-03-02T03:42:18;38.50;;;14.73;;
31990;SDS011;18508;49.386;8.370;2023-03-02T03:44:50;32.63;;;13.52;;
31990;SDS011;18508;49.386;8.370;2023-03-02T03:47:20;38.22;;;14.48;;
31990;SDS011;18508;49.386;8.370;2023-03-02T03:49:51;35.83;;;15.23;;
31990;SDS011;18508;49.386;8.370;2023-03-02T03:52:19;36.70;;;14.88;;
31990;SDS011;18508;49.386;8.370;2023-03-02T03:54:55;36.38;;;14.18;;
31990;SDS011;18508;49.386;8.370;2023-03-02T03:57:28;34.15;;;13.98;;
31990;SDS011;18508;49.386;8.370;2023-03-02T03:59:57;33.53;;;14.05;;
31990;SDS011;18508;49.386;8.370;2023-03-02T04:02:27;34.53;;;14.75;;
31990;SDS011;18508;49.386;8.370;2023-03-02T04:04:55;37.72;;;14.43;;
31990;SDS011;18508;49.386;8.370;2023-03-02T04:07:31;30.08;;;13.15;;
31990;SDS011;18508;49.386;8.370;2023-03-02T04:10:01;35.67;;;13.88;;
31990;SDS011;18508;49.386;8.370;2023-03-02T04:12:33;34.88;;;14.45;;
31990;SDS011;18508;49.386;8.370;2023-03-02T04:15:04;32.38;;;13.45;;
31990;SDS011;18508;49.386;8.370;2023-03-02T04:17:34;30.60;;;13.75;;
31990;SDS011;18508;49.386;8.370;2023-03-02T04:20:04;30.48;;;12.32;;
31990;SDS011;18508;49.386;8.370;2023-03-02T04:22:34;32.95;;;13.10;;
31990;SDS011;18508;49.386;8.370;2023-03-02T04:25:05;34.10;;;13.25;;
31990;SDS011;18508;49.386;8.370;2023-03-02T04:27:34;33.80;;;14.65;;
31990;SDS011;18508;49.386;8.370;2023-03-02T04:30:09;28.67;;;13.82;;
31990;SDS011;18508;49.386;8.370;2023-03-02T04:32:39;31.52;;;12.50;;
31990;SDS011;18508;49.386;8.370;2023-03-02T04:35:09;35.78;;;14.50;;
31990;SDS011;18508;49.386;8.370;2023-03-02T04:37:37;32.40;;;13.75;;
31990;SDS011;18508;49.386;8.370;2023-03-02T04:40:06;28.42;;;13.20;;
31990;SDS011;18508;49.386;8.370;2023-03-02T04:42:39;30.80;;;13.98;;
31990;SDS011;18508;49.386;8.370;2023-03-02T04:45:10;34.22;;;14.68;;
31990;SDS011;18508;49.386;8.370;2023-03-02T04:47:40;39.65;;;14.48;;
31990;SDS011;18508;49.386;8.370;2023-03-02T04:50:10;38.35;;;15.00;;
31990;SDS011;18508;49.386;8.370;2023-03-02T04:52:41;35.50;;;15.02;;
31990;SDS011;18508;49.386;8.370;2023-03-02T04:55:11;34.17;;;13.20;;
31990;SDS011;18508;49.386;8.370;2023-03-02T04:57:46;33.00;;;13.65;;
31990;SDS011;18508;49.386;8.370;2023-03-02T05:00:17;32.53;;;14.52;;
31990;SDS011;18508;49.386;8.370;2023-03-02T05:02:46;31.10;;;14.35;;
31990;SDS011;18508;49.386;8.370;2023-03-02T05:05:18;29.40;;;12.65;;
31990;SDS011;18508;49.386;8.370;2023-03-02T05:07:47;33.22;;;14.32;;
31990;SDS011;18508;49.386;8.370;2023-03-02T05:10:18;34.40;;;13.48;;
31990;SDS011;18508;49.386;8.370;2023-03-02T05:12:48;33.40;;;13.70;;
31990;SDS011;18508;49.386;8.370;2023-03-02T05:15:25;38.00;;;13.98;;
31990;SDS011;18508;49.386;8.370;2023-03-02T05:17:56;30.77;;;13.32;;
31990;SDS011;18508;49.386;8.370;2023-03-02T05:20:25;30.63;;;12.57;;
31990;SDS011;18508;49.386;8.370;2023-03-02T05:22:56;38.72;;;15.75;;
31990;SDS011;18508;49.386;8.370;2023-03-02T05:25:27;33.65;;;13.52;;
31990;SDS011;18508;49.386;8.370;2023-03-02T05:28:01;36.90;;;14.68;;
31990;SDS011;18508;49.386;8.370;2023-03-02T05:30:33;34.88;;;14.35;;
31990;SDS011;18508;49.386;8.370;2023-03-02T05:33:03;36.13;;;14.40;;
31990;SDS011;18508;49.386;8.370;2023-03-02T05:35:32;38.35;;;15.18;;
31990;SDS011;18508;49.386;8.370;2023-03-02T05:38:02;35.28;;;15.38;;
31990;SDS011;18508;49.386;8.370;2023-03-02T05:40:32;38.15;;;15.55;;
31990;SDS011;18508;49.386;8.370;2023-03-02T05:43:03;29.65;;;14.25;;
31990;SDS011;18508;49.386;8.370;2023-03-02T05:45:34;38.28;;;15.20;;
31990;SDS011;18508;49.386;8.370;2023-03-02T05:48:07;31.55;;;13.93;;
31990;SDS011;18508;49.386;8.370;2023-03-02T05:50:38;33.80;;;15.25;;
31990;SDS011;18508;49.386;8.370;2023-03-02T05:53:06;45.97;;;15.40;;
31990;SDS011;18508;49.386;8.370;2023-03-02T05:55:35;41.72;;;15.57;;
31990;SDS011;18508;49.386;8.370;2023-03-02T05:58:12;33.70;;;14.85;;
31990;SDS011;18508;49.386;8.370;2023-03-02T06:00:42;37.75;;;15.43;;
31990;SDS011;18508;49.386;8.370;2023-03-02T06:03:11;35.70;;;14.10;;
31990;SDS011;18508;49.386;8.370;2023-03-02T06:05:42;40.10;;;15.65;;
31990;SDS011;18508;49.386;8.370;2023-03-02T06:08:10;38.92;;;14.93;;
31990;SDS011;18508;49.386;8.370;2023-03-02T06:10:39;38.63;;;14.88;;
31990;SDS011;18508;49.386;8.370;2023-03-02T06:13:09;35.50;;;15.73;;
31990;SDS011;18508;49.386;8.370;2023-03-02T06:15:39;45.53;;;16.40;;
31990;SDS011;18508;49.386;8.370;2023-03-02T06:18:08;41.33;;;16.08;;
31990;SDS011;18508;49.386;8.370;2023-03-02T06:20:39;42.15;;;16.13;;
31990;SDS011;18508;49.386;8.370;2023-03-02T06:23:10;34.17;;;14.40;;
31990;SDS011;18508;49.386;8.370;2023-03-02T06:25:42;34.35;;;14.68;;
31990;SDS011;18508;49.386;8.370;2023-03-02T06:28:14;34.20;;;13.65;;
31990;SDS011;18508;49.386;8.370;2023-03-02T06:30:46;40.75;;;15.40;;
31990;SDS011;18508;49.386;8.370;2023-03-02T06:33:17;41.92;;;15.65;;
31990;SDS011;18508;49.386;8.370;2023-03-02T06:35:48;36.72;;;15.10;;
31990;SDS011;18508;49.386;8.370;2023-03-02T06:38:17;38.13;;;15.05;;
31990;SDS011;18508;49.386;8.370;2023-03-02T06:40:45;44.38;;;16.33;;
31990;SDS011;18508;49.386;8.370;2023-03-02T06:43:16;41.05;;;16.38;;
31990;SDS011;18508;49.386;8.370;2023-03-02T06:45:46;34.20;;;15.48;;
31990;SDS011;18508;49.386;8.370;2023-03-02T06:48:16;39.72;;;15.27;;
31990;SDS011;18508;49.386;8.370;2023-03-02T06:50:45;34.75;;;15.02;;
31990;SDS011;18508;49.386;8.370;2023-03-02T06:53:14;35.13;;;14.10;;
31990;SDS011;18508;49.386;8.370;2023-03-02T06:55:45;35.95;;;13.90;;
31990;SDS011;18508;49.386;8.370;2023-03-02T06:58:13;42.40;;;16.08;;
31990;SDS011;18508;49.386;8.370;2023-03-02T07:00:42;34.05;;;14.38;;
31990;SDS011;18508;49.386;8.370;2023-03-02T07:03:12;37.30;;;15.32;;
31990;SDS011;18508;49.386;8.370;2023-03-02T07:05:40;34.60;;;14.77;;
31990;SDS011;18508;49.386;8.370;2023-03-02T07:08:11;40.65;;;14.95;;
31990;SDS011;18508;49.386;8.370;2023-03-02T07:10:39;37.70;;;15.02;;
31990;SDS011;18508;49.386;8.370;2023-03-02T07:13:08;34.33;;;14.95;;
31990;SDS011;18508;49.386;8.370;2023-03-02T07:15:37;35.55;;;15.07;;
31990;SDS011;18508;49.386;8.370;2023-03-02T07:18:06;36.65;;;14.68;;
31990;SDS011;18508;49.386;8.370;2023-03-02T07:20:35;34.83;;;14.65;;
31990;SDS011;18508;49.386;8.370;2023-03-02T07:23:04;32.83;;;14.25;;
31990;SDS011;18508;49.386;8.370;2023-03-02T07:25:35;35.30;;;14.60;;
31990;SDS011;18508;49.386;8.370;2023-03-02T07:28:03;37.05;;;14.63;;
31990;SDS011;18508;49.386;8.370;2023-03-02T07:30:32;37.05;;;16.40;;
31990;SDS011;18508;49.386;8.370;2023-03-02T07:33:00;45.85;;;15.55;;
31990;SDS011;18508;49.386;8.370;2023-03-02T07:35:28;37.25;;;16.65;;
31990;SDS011;18508;49.386;8.370;2023-03-02T07:37:58;38.72;;;16.55;;
31990;SDS011;18508;49.386;8.370;2023-03-02T07:40:26;34.45;;;15.65;;
31990;SDS011;18508;49.386;8.370;2023-03-02T07:42:55;34.33;;;14.10;;
31990;SDS011;18508;49.386;8.370;2023-03-02T07:45:23;35.88;;;15.73;;
31990;SDS011;18508;49.386;8.370;2023-03-02T07:47:51;42.60;;;15.50;;
31990;SDS011;18508;49.386;8.370;2023-03-02T07:50:20;34.53;;;15.30;;
31990;SDS011;18508;49.386;8.370;2023-03-02T07:52:48;38.35;;;16.02;;
31990;SDS011;18508;49.386;8.370;2023-03-02T07:55:18;34.35;;;14.13;;
31990;SDS011;18508;49.386;8.370;2023-03-02T07:57:47;33.08;;;15.65;;
31990;SDS011;18508;49.386;8.370;2023-03-02T08:00:16;36.15;;;14.60;;
31990;SDS011;18508;49.386;8.370;2023-03-02T08:02:49;33.95;;;14.40;;
31990;SDS011;18508;49.386;8.370;2023-03-02T08:05:17;33.08;;;15.00;;
31990;SDS011;18508;49.386;8.370;2023-03-02T08:07:46;34.05;;;14.73;;
31990;SDS011;18508;49.386;8.370;2023-03-02T08:10:15;33.47;;;15.02;;
31990;SDS011;18508;49.386;8.370;2023-03-02T08:12:45;30.58;;;14.32;;
31990;SDS011;18508;49.386;8.370;2023-03-02T08:15:13;32.33;;;14.68;;
31990;SDS011;18508;49.386;8.370;2023-03-02T08:17:43;34.55;;;13.82;;
31990;SDS011;18508;49.386;8.370;2023-03-02T08:20:15;31.52;;;14.63;;
31990;SDS011;18508;49.386;8.370;2023-03-02T08:22:43;30.92;;;15.27;;
31990;SDS011;18508;49.386;8.370;2023-03-02T08:25:12;35.03;;;14.88;;
31990;SDS011;18508;49.386;8.370;2023-03-02T08:27:40;34.08;;;15.88;;
31990;SDS011;18508;49.386;8.370;2023-03-02T08:30:11;34.35;;;15.15;;
31990;SDS011;18508;49.386;8.370;2023-03-02T08:32:40;33.13;;;15.10;;
31990;SDS011;18508;49.386;8.370;2023-03-02T08:35:08;38.90;;;16.42;;
31990;SDS011;18508;49.386;8.370;2023-03-02T08:37:38;34.58;;;15.10;;
31990;SDS011;18508;49.386;8.370;2023-03-02T08:40:06;35.35;;;15.73;;
31990;SDS011;18508;49.386;8.370;2023-03-02T08:42:35;32.03;;;14.88;;
31990;SDS011;18508;49.386;8.370;2023-03-02T08:45:04;38.67;;;15.90;;
31990;SDS011;18508;49.386;8.370;2023-03-02T08:47:35;35.00;;;15.43;;
31990;SDS011;18508;49.386;8.370;2023-03-02T08:50:03;37.33;;;16.33;;
31990;SDS011;18508;49.386;8.370;2023-03-02T08:52:32;34.42;;;15.57;;
31990;SDS011;18508;49.386;8.370;2023-03-02T08:55:00;36.60;;;15.48;;
31990;SDS011;18508;49.386;8.370;2023-03-02T08:57:29;32.28;;;15.68;;
31990;SDS011;18508;49.386;8.370;2023-03-02T09:00:00;37.47;;;16.15;;
31990;SDS011;18508;49.386;8.370;2023-03-02T09:02:28;37.25;;;14.82;;
31990;SDS011;18508;49.386;8.370;2023-03-02T09:05:00;35.72;;;16.10;;
31990;SDS011;18508;49.386;8.370;2023-03-02T09:07:28;36.15;;;15.70;;
31990;SDS011;18508;49.386;8.370;2023-03-02T09:09:56;30.08;;;14.98;;
31990;SDS011;18508;49.386;8.370;2023-03-02T09:12:25;37.30;;;15.68;;
31990;SDS011;18508;49.386;8.370;2023-03-02T09:14:54;30.95;;;15.38;;
31990;SDS011;18508;49.386;8.370;2023-03-02T09:17:22;35.55;;;15.43;;
31990;SDS011;18508;49.386;8.370;2023-03-02T09:19:51;32.45;;;14.65;;
31990;SDS011;18508;49.386;8.370;2023-03-02T09:22:21;30.40;;;14.52;;
31990;SDS011;18508;49.386;8.370;2023-03-02T09:24:49;33.40;;;14.73;;
31990;SDS011;18508;49.386;8.370;2023-03-02T09:27:17;33.65;;;16.08;;
31990;SDS011;18508;49.386;8.370;2023-03-02T09:29:46;34.47;;;17.48;;
31990;SDS011;18508;49.386;8.370;2023-03-02T09:32:15;33.22;;;15.90;;
31990;SDS011;18508;49.386;8.370;2023-03-02T09:34:43;36.83;;;16.85;;
31990;SDS011;18508;49.386;8.370;2023-03-02T09:37:11;32.30;;;15.48;;
31990;SDS011;18508;49.386;8.370;2023-03-02T09:39:41;36.45;;;15.90;;
31990;SDS011;18508;49.386;8.370;2023-03-02T09:42:14;34.90;;;14.93;;
31990;SDS011;18508;49.386;8.370;2023-03-02T09:44:59;33.38;;;16.00;;
31990;SDS011;18508;49.386;8.370;2023-03-02T09:47:49;36.80;;;16.23;;
31990;SDS011;18508;49.386;8.370;2023-03-02T09:50:29;40.20;;;15.77;;
31990;SDS011;18508;49.386;8.370;2023-03-02T09:53:16;36.80;;;16.27;;
31990;SDS011;18508;49.386;8.370;2023-03-02T09:58:37;30.33;;;14.88;;
31990;SDS011;18508;49.386;8.370;2023-03-02T10:01:10;27.90;;;14.38;;
31990;SDS011;18508;49.386;8.370;2023-03-02T10:03:44;30.38;;;14.15;;
31990;SDS011;18508;49.386;8.370;2023-03-02T10:06:17;28.23;;;14.45;;
31990;SDS011;18508;49.386;8.370;2023-03-02T10:08:46;27.90;;;13.50;;
31990;SDS011;18508;49.386;8.370;2023-03-02T10:11:20;32.08;;;14.90;;
31990;SDS011;18508;49.386;8.370;2023-03-02T10:13:57;31.45;;;14.20;;
31990;SDS011;18508;49.386;8.370;2023-03-02T10:16:31;29.63;;;14.75;;
31990;SDS011;18508;49.386;8.370;2023-03-02T10:19:06;28.35;;;13.63;;
31990;SDS011;18508;49.386;8.370;2023-03-02T10:21:38;30.88;;;14.85;;
31990;SDS011;18508;49.386;8.370;2023-03-02T10:24:11;31.52;;;14.27;;
31990;SDS011;18508;49.386;8.370;2023-03-02T10:26:49;28.65;;;13.52;;
31990;SDS011;18508;49.386;8.370;2023-03-02T10:29:28;25.40;;;13.13;;
31990;SDS011;18508;49.386;8.370;2023-03-02T10:32:10;29.83;;;13.77;;
31990;SDS011;18508;49.386;8.370;2023-03-02T10:34:43;31.08;;;15.10;;
31990;SDS011;18508;49.386;8.370;2023-03-02T10:37:12;29.75;;;15.65;;
31990;SDS011;18508;49.386;8.370;2023-03-02T10:39:42;26.80;;;14.52;;
31990;SDS011;18508;49.386;8.370;2023-03-02T10:42:13;27.88;;;14.48;;
31990;SDS011;18508;49.386;8.370;2023-03-02T10:47:21;27.60;;;13.15;;
31990;SDS011;18508;49.386;8.370;2023-03-02T10:49:52;28.63;;;13.20;;
31990;SDS011;18508;49.386;8.370;2023-03-02T10:52:23;33.17;;;15.45;;
31990;SDS011;18508;49.386;8.370;2023-03-02T10:55:03;29.33;;;13.48;;
31990;SDS011;18508;49.386;8.370;2023-03-02T10:57:37;24.95;;;13.48;;
31990;SDS011;18508;49.386;8.370;2023-03-02T11:00:13;25.67;;;13.30;;
31990;SDS011;18508;49.386;8.370;2023-03-02T11:02:52;27.35;;;13.60;;
31990;SDS011;18508;49.386;8.370;2023-03-02T11:05:32;26.10;;;13.38;;
31990;SDS011;18508;49.386;8.370;2023-03-02T11:08:03;27.73;;;13.73;;
31990;SDS011;18508;49.386;8.370;2023-03-02T11:10:34;26.75;;;13.35;;
31990;SDS011;18508;49.386;8.370;2023-03-02T11:13:14;28.00;;;13.95;;
31990;SDS011;18508;49.386;8.370;2023-03-02T11:15:46;32.35;;;14.93;;
31990;SDS011;18508;49.386;8.370;2023-03-02T11:18:22;27.27;;;13.10;;
31990;SDS011;18508;49.386;8.370;2023-03-02T11:20:54;26.13;;;13.10;;
31990;SDS011;18508;49.386;8.370;2023-03-02T11:26:01;22.50;;;12.30;;
31990;SDS011;18508;49.386;8.370;2023-03-02T11:28:42;23.60;;;12.43;;
31990;SDS011;18508;49.386;8.370;2023-03-02T11:31:16;25.05;;;12.95;;
31990;SDS011;18508;49.386;8.370;2023-03-02T11:33:56;30.33;;;14.32;;
31990;SDS011;18508;49.386;8.370;2023-03-02T11:36:44;26.08;;;13.30;;
31990;SDS011;18508;49.386;8.370;2023-03-02T11:39:25;25.25;;;12.95;;
31990;SDS011;18508;49.386;8.370;2023-03-02T11:42:23;25.63;;;12.82;;
31990;SDS011;18508;49.386;8.370;2023-03-02T11:44:55;28.63;;;13.07;;
31990;SDS011;18508;49.386;8.370;2023-03-02T11:47:29;25.55;;;13.32;;
31990;SDS011;18508;49.386;8.370;2023-03-02T11:50:00;26.80;;;13.52;;
31990;SDS011;18508;49.386;8.370;2023-03-02T11:52:34;26.55;;;12.65;;
31990;SDS011;18508;49.386;8.370;2023-03-02T11:57:42;23.88;;;11.68;;
31990;SDS011;18508;49.386;8.370;2023-03-02T12:02:59;23.52;;;11.40;;
31990;SDS011;18508;49.386;8.370;2023-03-02T12:05:30;25.77;;;12.73;;
31990;SDS011;18508;49.386;8.370;2023-03-02T12:11:01;24.23;;;12.85;;
31990;SDS011;18508;49.386;8.370;2023-03-02T12:13:35;26.30;;;13.32;;
31990;SDS011;18508;49.386;8.370;2023-03-02T12:16:19;25.25;;;12.18;;
31990;SDS011;18508;49.386;8.370;2023-03-02T12:18:49;24.10;;;12.73;;
31990;SDS011;18508;49.386;8.370;2023-03-02T12:21:21;23.33;;;12.77;;
31990;SDS011;18508;49.386;8.370;2023-03-02T12:24:23;23.67;;;12.73;;
31990;SDS011;18508;49.386;8.370;2023-03-02T12:27:03;23.08;;;11.95;;
31990;SDS011;18508;49.386;8.370;2023-03-02T12:29:40;21.00;;;11.95;;
31990;SDS011;18508;49.386;8.370;2023-03-02T12:32:19;27.70;;;13.23;;
31990;SDS011;18508;49.386;8.370;2023-03-02T12:34:50;24.27;;;12.45;;
31990;SDS011;18508;49.386;8.370;2023-03-02T12:37:22;26.40;;;13.05;;
31990;SDS011;18508;49.386;8.370;2023-03-02T12:45:55;27.15;;;12.93;;
31990;SDS011;18508;49.386;8.370;2023-03-02T12:48:37;23.15;;;12.63;;
31990;SDS011;18508;49.386;8.370;2023-03-02T12:51:13;23.35;;;11.88;;
31990;SDS011;18508;49.386;8.370;2023-03-02T12:53:47;21.15;;;11.10;;
31990;SDS011;18508;49.386;8.370;2023-03-02T12:56:21;24.10;;;12.23;;
31990;SDS011;18508;49.386;8.370;2023-03-02T12:58:54;22.15;;;11.68;;
31990;SDS011;18508;49.386;8.370;2023-03-02T13:01:29;19.60;;;11.13;;
31990;SDS011;18508;49.386;8.370;2023-03-02T13:04:01;21.13;;;11.98;;
31990;SDS011;18508;49.386;8.370;2023-03-02T13:06:32;24.95;;;12.65;;
31990;SDS011;18508;49.386;8.370;2023-03-02T13:09:05;23.58;;;12.05;;
31990;SDS011;18508;49.386;8.370;2023-03-02T13:11:35;22.85;;;12.07;;
31990;SDS011;18508;49.386;8.370;2023-03-02T13:14:16;25.90;;;12.73;;
31990;SDS011;18508;49.386;8.370;2023-03-02T13:16:55;24.20;;;12.15;;
31990;SDS011;18508;49.386;8.370;2023-03-02T13:19:31;24.15;;;13.07;;
31990;SDS011;18508;49.386;8.370;2023-03-02T13:22:01;23.48;;;12.18;;
31990;SDS011;18508;49.386;8.370;2023-03-02T13:24:44;29.63;;;13.30;;
31990;SDS011;18508;49.386;8.370;2023-03-02T13:27:17;25.73;;;12.35;;
31990;SDS011;18508;49.386;8.370;2023-03-02T13:29:49;23.20;;;12.05;;
31990;SDS011;18508;49.386;8.370;2023-03-02T13:32:19;22.33;;;11.68;;
31990;SDS011;18508;49.386;8.370;2023-03-02T13:34:54;20.42;;;11.57;;
31990;SDS011;18508;49.386;8.370;2023-03-02T13:37:34;26.00;;;13.40;;
31990;SDS011;18508;49.386;8.370;2023-03-02T13:43:21;22.40;;;11.38;;
31990;SDS011;18508;49.386;8.370;2023-03-02T13:46:00;21.80;;;12.32;;
31990;SDS011;18508;49.386;8.370;2023-03-02T13:48:31;22.83;;;12.80;;
31990;SDS011;18508;49.386;8.370;2023-03-02T13:51:02;23.13;;;12.63;;
31990;SDS011;18508;49.386;8.370;2023-03-02T13:53:49;27.02;;;12.90;;
31990;SDS011;18508;49.386;8.370;2023-03-02T13:56:26;25.15;;;12.73;;
31990;SDS011;18508;49.386;8.370;2023-03-02T13:58:57;25.27;;;12.27;;
31990;SDS011;18508;49.386;8.370;2023-03-02T14:01:26;21.15;;;11.90;;
31990;SDS011;18508;49.386;8.370;2023-03-02T14:03:55;24.60;;;12.80;;
31990;SDS011;18508;49.386;8.370;2023-03-02T14:06:28;21.48;;;11.85;;
31990;SDS011;18508;49.386;8.370;2023-03-02T14:08:58;22.20;;;11.55;;
31990;SDS011;18508;49.386;8.370;2023-03-02T14:11:31;23.10;;;12.63;;
31990;SDS011;18508;49.386;8.370;2023-03-02T14:14:04;23.75;;;11.77;;
31990;SDS011;18508;49.386;8.370;2023-03-02T14:16:33;21.15;;;11.90;;
31990;SDS011;18508;49.386;8.370;2023-03-02T14:19:02;25.95;;;12.90;;
31990;SDS011;18508;49.386;8.370;2023-03-02T14:21:34;24.15;;;12.25;;
31990;SDS011;18508;49.386;8.370;2023-03-02T14:24:02;24.80;;;12.60;;
31990;SDS011;18508;49.386;8.370;2023-03-02T14:26:34;21.23;;;11.82;;
31990;SDS011;18508;49.386;8.370;2023-03-02T14:29:09;23.65;;;12.52;;
31990;SDS011;18508;49.386;8.370;2023-03-02T14:31:46;23.02;;;12.57;;
31990;SDS011;18508;49.386;8.370;2023-03-02T14:34:16;25.83;;;11.98;;
31990;SDS011;18508;49.386;8.370;2023-03-02T14:36:47;21.80;;;12.57;;
31990;SDS011;18508;49.386;8.370;2023-03-02T14:39:19;21.58;;;11.40;;
31990;SDS011;18508;49.386;8.370;2023-03-02T14:41:49;25.70;;;11.98;;
31990;SDS011;18508;49.386;8.370;2023-03-02T14:44:20;19.60;;;11.02;;
31990;SDS011;18508;49.386;8.370;2023-03-02T14:46:48;20.80;;;11.48;;
31990;SDS011;18508;49.386;8.370;2023-03-02T14:49:18;21.77;;;11.18;;
31990;SDS011;18508;49.386;8.370;2023-03-02T14:51:53;20.08;;;12.15;;
31990;SDS011;18508;49.386;8.370;2023-03-02T14:54:24;23.48;;;11.55;;
31990;SDS011;18508;49.386;8.370;2023-03-02T14:56:56;23.88;;;11.70;;
31990;SDS011;18508;49.386;8.370;2023-03-02T14:59:25;23.20;;;12.10;;
31990;SDS011;18508;49.386;8.370;2023-03-02T15:01:55;18.80;;;11.00;;
31990;SDS011;18508;49.386;8.370;2023-03-02T15:04:35;21.20;;;10.90;;
31990;SDS011;18508;49.386;8.370;2023-03-02T15:07:08;22.10;;;11.07;;
31990;SDS011;18508;49.386;8.370;2023-03-02T15:09:38;21.40;;;11.63;;
31990;SDS011;18508;49.386;8.370;2023-03-02T15:12:10;20.63;;;11.38;;
31990;SDS011;18508;49.386;8.370;2023-03-02T15:14:43;20.80;;;11.93;;
31990;SDS011;18508;49.386;8.370;2023-03-02T15:17:12;20.50;;;11.32;;